Bookmark and Share
Track history (hours):
 

Atalandi

Last reported at 2014-Apr-25 05:33 UTC. Time now 2014-Apr-25 06:08 UTC.
Position N 37°29' E 010°51'.

Length 248 m; draft 13.3 m.

Type: Ship (hazmat cat C). MMSI: 240269000.

NotesDate/timePositionNaut miles runAvg speedWind from/ knotsBaromVisibWave heightAir tempDewpointWater temp
2014-Apr-25 05:33N 37°29' E 010°51'1313.0
2014-Apr-25 04:33N 37°33' E 010°36'1312.7
2014-Apr-25 03:33N 37°34' E 010°19'1212.4
2014-Apr-25 02:33N 37°34' E 010°04'1212.3
2014-Apr-25 01:33N 37°34' E 009°48'1212.4
2014-Apr-25 00:33N 37°37' E 009°33'1312.7
2014-Apr-24 23:33N 37°40' E 009°17'1312.8
2014-Apr-24 22:33N 37°42' E 009°02'1513.1
2014-Apr-24 21:23N 37°43' E 008°42'1113.0
2014-Apr-24 20:33N 37°43' E 008°29'1313.1
2014-Apr-24 19:33N 37°42' E 008°12'1313.1
2014-Apr-24 18:33N 37°41' E 007°56'6212.4
2014-Apr-24 13:33N 37°38' E 006°38'11312.1
2014-Apr-24 04:14N 37°31' E 004°16'912.9
2014-Apr-24 03:33N 37°31' E 004°04'1313.3
2014-Apr-24 02:33N 37°30' E 003°48'1111.2
2014-Apr-24 01:33N 37°30' E 003°34'1211.8
2014-Apr-24 00:33N 37°29' E 003°19'1212.0
2014-Apr-23 23:33N 37°28' E 003°04'1212.3
2014-Apr-23 22:33N 37°28' E 002°48'1212.2
2014-Apr-23 21:32N 37°26' E 002°33'3811.7
2014-Apr-23 18:19N 37°14' E 001°48'33911.7
2014-Apr-22 13:28N 36°01' W 005°04'1313.9
2014-Apr-22 12:33N 35°59' W 005°20'1414.1
2014-Apr-22 11:33N 35°55' W 005°37'1513.9
2014-Apr-22 10:29N 35°54' W 005°55'  
2014-Apr-18 21:21N 50°41' W 011°10'1012.0
2014-Apr-18 20:32N 50°51' W 011°11'1212.0
2014-Apr-18 19:32N 51°03' W 011°11'1211.8
2014-Apr-18 18:28N 51°15' W 011°12'1211.7
2014-Apr-18 17:27N 51°27' W 011°12'1011.6
2014-Apr-18 16:33N 51°37' W 011°12'1311.4
2014-Apr-18 15:26N 51°50' W 011°12'1111.4
2014-Apr-18 14:26N 52°02' W 011°12'1011.4
2014-Apr-18 13:33N 52°12' W 011°12'9211.5
2014-Apr-18 05:33N 53°44' W 011°02'1211.7
2014-Apr-18 04:33N 53°55' W 011°00'1212.0
2014-Apr-18 03:34N 54°07' W 010°58'1211.6
2014-Apr-18 02:33N 54°19' W 010°56'1211.5
2014-Apr-18 01:32N 54°29' W 010°47'23710.6
2014-Apr-17 03:03N 58°02' W 007°38'4610.1
2014-Apr-16 22:33N 58°35' W 006°37'1510.4
2014-Apr-16 21:08N 58°42' W 006°12'610.2
2014-Apr-16 20:32N 58°43' W 006°01'40 9.6
2014-Apr-16 16:22N 58°46' W 004°44'910.8
2014-Apr-16 15:33N 58°45' W 004°27'1211.8
2014-Apr-16 14:33N 58°45' W 004°04'1212.0
2014-Apr-16 13:33N 58°45' W 003°41'1312.5
2014-Apr-16 12:33N 58°44' W 003°17'9 9.4
2014-Apr-16 11:33N 58°50' W 003°03'2 1.9
2014-Apr-16 10:33N 58°51' W 003°07'0 0.0
2014-Apr-16 09:33N 58°51' W 003°07'0 0.0
2014-Apr-16 08:33N 58°51' W 003°07'0 0.0
2014-Apr-16 07:33N 58°51' W 003°07'0 0.0
2014-Apr-16 06:30N 58°51' W 003°07'0 0.0
2014-Apr-16 05:33N 58°51' W 003°07'0 0.0
2014-Apr-16 04:30N 58°51' W 003°07'0 0.0
2014-Apr-16 03:33N 58°51' W 003°07'0 0.0
2014-Apr-16 02:30N 58°51' W 003°07'0 0.0
2014-Apr-16 01:30N 58°51' W 003°07'0 0.0
2014-Apr-16 00:33N 58°51' W 003°07'0 0.0
2014-Apr-15 23:33N 58°51' W 003°07'0 0.0
2014-Apr-15 22:33N 58°51' W 003°07'0 0.0
2014-Apr-15 21:27N 58°51' W 003°07'0 0.0
2014-Apr-15 20:30N 58°51' W 003°07'0 0.0
2014-Apr-15 19:33N 58°51' W 003°07'0 0.0
2014-Apr-15 18:33N 58°51' W 003°07'0 0.0
2014-Apr-15 17:30N 58°51' W 003°07'0 0.0
2014-Apr-15 16:24N 58°51' W 003°07'0 0.0
2014-Apr-15 15:33N 58°51' W 003°07'0 0.0
2014-Apr-15 14:30N 58°51' W 003°07'0 0.0
2014-Apr-15 12:33N 58°51' W 003°07'0 0.0
2014-Apr-15 11:33N 58°51' W 003°07'0 0.0
2014-Apr-15 10:33N 58°51' W 003°07'0 0.0
2014-Apr-15 09:33N 58°51' W 003°07'0 0.0
2014-Apr-15 08:33N 58°51' W 003°07'0 0.0
2014-Apr-15 07:33N 58°51' W 003°07'0 0.0
2014-Apr-15 06:30N 58°51' W 003°07'  

Dump ship's entire track history

sailing weather and tide predictions

Atalandi — SVBA — position and weather